createdAt,value
2023-04-08T00:00:57.760Z,10.33
2023-04-08T00:03:26.245Z,10.32
2023-04-08T00:05:53.305Z,10.32
2023-04-08T00:08:21.535Z,10.31
2023-04-08T00:10:48.624Z,10.28
2023-04-08T00:13:21.042Z,10.27
2023-04-08T00:15:47.964Z,10.27
2023-04-08T00:18:16.220Z,10.28
2023-04-08T00:20:45.129Z,10.30
2023-04-08T00:23:12.034Z,10.32
2023-04-08T00:25:39.302Z,10.32
2023-04-08T00:28:06.572Z,10.27
2023-04-08T00:30:33.616Z,10.21
2023-04-08T00:33:01.384Z,10.21
2023-04-08T00:35:28.456Z,10.25
2023-04-08T00:37:55.449Z,10.28
2023-04-08T00:40:23.331Z,10.29
2023-04-08T00:42:50.934Z,10.32
2023-04-08T00:45:17.950Z,10.36
2023-04-08T00:47:46.157Z,10.37
2023-04-08T00:50:13.283Z,10.36
2023-04-08T00:52:40.282Z,10.34
2023-04-08T00:55:09.954Z,10.30
2023-04-08T00:57:37.012Z,10.24
2023-04-08T01:00:09.115Z,10.20
2023-04-08T01:03:10.922Z,10.15
2023-04-08T01:06:02.774Z,10.12
2023-04-08T01:08:31.089Z,10.09
2023-04-08T01:11:01.643Z,10.08
2023-04-08T01:13:30.899Z,10.07
2023-04-08T01:16:03.185Z,10.05
2023-04-08T01:18:30.547Z,10.04
2023-04-08T01:20:57.258Z,10.05
2023-04-08T01:24:01.660Z,10.04
2023-04-08T01:26:28.963Z,10.04
2023-04-08T01:28:58.848Z,10.02
2023-04-08T01:31:25.843Z,10.01
2023-04-08T01:33:52.724Z,10.00
2023-04-08T01:36:23.091Z,9.92
2023-04-08T01:38:50.765Z,9.84
2023-04-08T01:41:18.187Z,9.81
2023-04-08T01:43:50.139Z,9.78
2023-04-08T01:46:17.149Z,9.75
2023-04-08T01:48:43.916Z,9.72
2023-04-08T01:51:11.600Z,9.73
2023-04-08T01:53:38.531Z,9.77
2023-04-08T01:56:08.604Z,9.78
2023-04-08T01:58:46.087Z,9.75
2023-04-08T02:01:18.307Z,9.70
2023-04-08T02:03:46.578Z,9.68
2023-04-08T02:06:13.873Z,9.67
2023-04-08T02:08:41.006Z,9.66
2023-04-08T02:11:09.777Z,9.70
2023-04-08T02:13:36.950Z,9.73
2023-04-08T02:16:10.631Z,9.74
2023-04-08T02:18:37.613Z,9.78
2023-04-08T02:21:14.086Z,9.84
2023-04-08T02:23:41.861Z,9.90
2023-04-08T02:26:16.274Z,9.96
2023-04-08T02:28:43.055Z,10.00
2023-04-08T02:31:14.217Z,10.01
2023-04-08T02:33:45.456Z,9.99
2023-04-08T02:36:12.643Z,9.98
2023-04-08T02:38:41.111Z,9.94
2023-04-08T02:41:08.828Z,9.91
2023-04-08T02:43:36.301Z,9.89
2023-04-08T02:46:10.181Z,9.87
2023-04-08T02:48:38.382Z,9.85
2023-04-08T02:51:05.180Z,9.84
2023-04-08T02:53:33.487Z,9.83
2023-04-08T02:56:00.844Z,9.84
2023-04-08T02:58:27.687Z,9.86
2023-04-08T03:00:55.122Z,9.88
2023-04-08T03:03:28.027Z,9.90
2023-04-08T03:05:55.834Z,9.94
2023-04-08T03:08:22.798Z,9.96
2023-04-08T03:10:49.932Z,9.99
2023-04-08T03:13:17.394Z,10.02
2023-04-08T03:15:44.233Z,10.04
2023-04-08T03:18:11.384Z,10.03
2023-04-08T03:20:38.275Z,9.97
2023-04-08T03:23:09.037Z,9.92
2023-04-08T03:25:36.313Z,9.93
2023-04-08T03:28:03.114Z,9.98
2023-04-08T03:30:31.156Z,10.02
2023-04-08T03:32:59.804Z,10.05
2023-04-08T03:35:26.697Z,10.04
2023-04-08T03:37:55.151Z,9.97
2023-04-08T03:40:21.923Z,9.87
2023-04-08T03:42:51.321Z,9.78
2023-04-08T03:45:18.607Z,9.77
2023-04-08T03:47:46.865Z,9.80
2023-04-08T03:50:13.807Z,9.81
2023-04-08T03:52:46.401Z,9.77
2023-04-08T03:55:13.230Z,9.74
2023-04-08T03:57:40.665Z,9.71
2023-04-08T04:00:08.782Z,9.74
2023-04-08T04:02:43.200Z,9.78
2023-04-08T04:05:10.199Z,9.84
2023-04-08T04:07:38.480Z,9.87
2023-04-08T04:10:06.498Z,9.92
2023-04-08T04:12:33.449Z,9.97
2023-04-08T04:15:01.175Z,9.97
2023-04-08T04:17:29.157Z,10.00
2023-04-08T04:19:57.092Z,10.02
2023-04-08T04:22:28.576Z,10.10
2023-04-08T04:24:55.894Z,10.10
2023-04-08T04:29:36.304Z,10.20
2023-04-08T04:32:04.350Z,10.23
2023-04-08T04:34:31.632Z,10.25
2023-04-08T04:36:58.887Z,10.24
2023-04-08T04:39:25.956Z,10.25
2023-04-08T04:41:52.707Z,10.28
2023-04-08T04:44:19.525Z,10.30
2023-04-08T04:46:46.351Z,10.32
2023-04-08T04:49:13.662Z,10.37
2023-04-08T04:51:40.417Z,10.41
2023-04-08T04:54:09.190Z,10.42
2023-04-08T04:56:36.177Z,10.44
2023-04-08T04:59:05.552Z,10.50
2023-04-08T05:01:33.060Z,10.59
2023-04-08T05:04:01.764Z,10.68
2023-04-08T05:06:30.338Z,10.73
2023-04-08T05:08:58.004Z,10.83
2023-04-08T05:11:27.041Z,11.01
2023-04-08T05:13:55.912Z,11.29
2023-04-08T05:16:30.680Z,11.66
2023-04-08T05:18:57.521Z,11.98
2023-04-08T05:21:27.936Z,12.27
2023-04-08T05:24:00.922Z,12.69
2023-04-08T05:26:31.142Z,13.26
2023-04-08T05:29:02.231Z,13.83
2023-04-08T05:31:29.129Z,14.32
2023-04-08T05:33:59.500Z,14.77
2023-04-08T05:36:26.736Z,15.03
2023-04-08T05:38:53.487Z,15.28
2023-04-08T05:41:21.682Z,15.67
2023-04-08T05:43:48.527Z,16.12
2023-04-08T05:46:15.530Z,16.52
2023-04-08T05:48:42.348Z,16.92
2023-04-08T05:51:21.054Z,17.28
2023-04-08T05:53:48.870Z,17.59
2023-04-08T05:56:15.817Z,17.83
2023-04-08T05:58:46.146Z,18.05
2023-04-08T06:01:13.100Z,18.15
2023-04-08T06:03:40.719Z,18.37
2023-04-08T06:06:11.436Z,18.65
2023-04-08T06:08:39.483Z,18.89
2023-04-08T06:11:07.137Z,19.05
2023-04-08T06:13:36.745Z,19.22
2023-04-08T06:16:14.049Z,19.40
2023-04-08T06:18:41.061Z,19.39
2023-04-08T06:21:09.757Z,19.37
2023-04-08T06:23:36.921Z,19.33
2023-04-08T06:26:04.643Z,19.44
2023-04-08T06:28:31.840Z,19.54
2023-04-08T06:31:00.571Z,19.53
2023-04-08T06:33:30.106Z,19.58
2023-04-08T06:36:05.607Z,19.70
2023-04-08T06:38:32.552Z,19.99
2023-04-08T06:41:04.078Z,20.32
2023-04-08T06:43:31.796Z,20.65
2023-04-08T06:45:58.994Z,20.98
2023-04-08T06:48:31.323Z,21.36
2023-04-08T06:51:00.050Z,21.65
2023-04-08T06:53:35.242Z,21.98
2023-04-08T06:56:30.901Z,22.30
2023-04-08T06:58:57.809Z,22.56
2023-04-08T07:01:25.257Z,22.81
2023-04-08T07:07:06.902Z,23.63
2023-04-08T07:09:36.348Z,23.97
2023-04-08T07:12:04.511Z,24.26
2023-04-08T07:14:31.559Z,24.45
2023-04-08T07:17:08.662Z,24.56
2023-04-08T07:19:41.432Z,24.76
2023-04-08T07:22:09.011Z,25.03
2023-04-08T07:24:36.095Z,25.16
2023-04-08T07:27:03.359Z,25.12
2023-04-08T07:29:31.807Z,25.21
2023-04-08T07:31:59.326Z,25.32
2023-04-08T07:34:26.206Z,25.36
2023-04-08T07:36:53.197Z,25.33
2023-04-08T07:39:20.143Z,25.30
2023-04-08T07:41:47.267Z,25.34
2023-04-08T07:44:16.908Z,25.35
2023-04-08T07:46:46.177Z,25.40
2023-04-08T07:49:13.430Z,25.46
2023-04-08T07:51:40.274Z,25.41
2023-04-08T07:54:11.499Z,25.05
2023-04-08T07:56:43.955Z,24.79
2023-04-08T07:59:11.262Z,24.74
2023-04-08T08:01:38.492Z,24.67
2023-04-08T08:04:06.055Z,24.37
2023-04-08T08:06:34.756Z,24.05
2023-04-08T08:09:01.545Z,23.63
2023-04-08T08:11:29.398Z,23.03
2023-04-08T08:14:07.593Z,22.56
2023-04-08T08:16:36.001Z,22.22
2023-04-08T08:19:05.558Z,21.94
2023-04-08T08:21:36.397Z,21.65
2023-04-08T08:24:04.420Z,21.46
2023-04-08T08:26:31.444Z,21.25
2023-04-08T08:29:01.377Z,21.05
2023-04-08T08:31:29.474Z,20.88
2023-04-08T08:33:56.526Z,20.58
2023-04-08T08:36:28.455Z,20.25
2023-04-08T08:38:56.588Z,19.92
2023-04-08T08:41:23.740Z,19.63
2023-04-08T08:43:50.697Z,19.49
2023-04-08T08:46:18.779Z,19.49
2023-04-08T08:48:46.121Z,19.47
2023-04-08T08:51:13.657Z,19.24
2023-04-08T08:53:44.735Z,18.98
2023-04-08T08:58:46.926Z,18.58
2023-04-08T09:01:37.152Z,18.48
2023-04-08T09:04:11.761Z,18.51
2023-04-08T09:06:40.613Z,18.63
2023-04-08T09:09:10.788Z,18.87
2023-04-08T09:11:39.408Z,19.31
2023-04-08T09:14:18.383Z,19.85
2023-04-08T09:16:45.624Z,20.48
2023-04-08T09:19:16.617Z,21.01
2023-04-08T09:22:22.667Z,21.44
2023-04-08T09:24:53.128Z,21.97
2023-04-08T09:27:49.231Z,22.19
2023-04-08T09:30:17.533Z,22.26
2023-04-08T09:32:55.103Z,22.31
2023-04-08T09:35:22.606Z,22.32
2023-04-08T09:37:50.004Z,22.47
2023-04-08T09:40:18.907Z,22.73
2023-04-08T09:42:51.642Z,23.02
2023-04-08T09:45:18.908Z,23.30
2023-04-08T09:47:56.872Z,23.54
2023-04-08T09:50:29.655Z,23.82
2023-04-08T09:53:08.993Z,24.00
2023-04-08T09:55:37.403Z,24.16
2023-04-08T09:58:11.179Z,24.35
2023-04-08T10:00:43.613Z,24.64
2023-04-08T10:03:28.543Z,24.83
2023-04-08T10:06:01.200Z,24.89
2023-04-08T10:08:30.948Z,24.90
2023-04-08T10:10:58.526Z,24.96
2023-04-08T10:13:34.722Z,25.10
2023-04-08T10:16:22.396Z,25.22
2023-04-08T10:18:52.568Z,25.04
2023-04-08T10:21:39.310Z,24.96
2023-04-08T10:24:08.417Z,24.84
2023-04-08T10:26:37.087Z,24.90
2023-04-08T10:29:20.709Z,24.96
2023-04-08T10:31:51.868Z,25.02
2023-04-08T10:34:26.900Z,25.25
2023-04-08T10:36:55.187Z,25.53
2023-04-08T10:39:26.925Z,25.67
2023-04-08T10:41:54.209Z,25.75
2023-04-08T10:44:26.366Z,25.88
2023-04-08T10:46:53.604Z,25.96
2023-04-08T10:49:21.562Z,25.98
2023-04-08T10:51:54.634Z,25.96
2023-04-08T10:54:22.598Z,26.02
2023-04-08T10:56:51.933Z,26.12
2023-04-08T10:59:30.235Z,26.24
2023-04-08T11:01:57.918Z,26.20
2023-04-08T11:04:25.292Z,26.22
2023-04-08T11:06:53.676Z,26.32
2023-04-08T11:09:20.980Z,26.24
2023-04-08T11:11:48.104Z,26.16
2023-04-08T11:14:16.849Z,26.15
2023-04-08T11:16:44.655Z,26.21
2023-04-08T11:19:12.327Z,26.29
2023-04-08T11:21:42.145Z,26.36
2023-04-08T11:24:11.457Z,26.20
2023-04-08T11:26:41.086Z,26.10
2023-04-08T11:29:14.501Z,25.90
2023-04-08T11:31:42.415Z,25.65
2023-04-08T11:34:11.767Z,25.66
2023-04-08T11:36:42.163Z,25.58
2023-04-08T11:39:09.898Z,25.21
2023-04-08T11:41:39.083Z,24.83
2023-04-08T11:44:06.641Z,24.51
2023-04-08T11:46:35.169Z,24.24
2023-04-08T11:49:03.469Z,23.90
2023-04-08T11:51:54.707Z,23.51
2023-04-08T11:54:31.709Z,23.16
2023-04-08T11:57:01.026Z,22.93
2023-04-08T11:59:29.822Z,22.70
2023-04-08T12:01:58.702Z,22.40
2023-04-08T12:04:25.797Z,21.98
2023-04-08T12:06:53.006Z,21.39
2023-04-08T12:09:20.049Z,20.83
2023-04-08T12:11:47.906Z,20.27
2023-04-08T12:14:15.174Z,19.70
2023-04-08T12:16:43.165Z,19.08
2023-04-08T12:19:11.083Z,18.52
2023-04-08T12:21:37.955Z,18.15
2023-04-08T12:24:04.930Z,17.91
2023-04-08T12:26:36.436Z,17.74
2023-04-08T12:29:03.471Z,17.62
2023-04-08T12:31:31.522Z,17.46
2023-04-08T12:34:00.700Z,17.32
2023-04-08T12:36:27.661Z,17.22
2023-04-08T12:39:00.177Z,17.10
2023-04-08T12:41:26.979Z,16.96
2023-04-08T12:43:53.930Z,16.85
2023-04-08T12:46:21.282Z,16.74
2023-04-08T12:48:48.963Z,16.66
2023-04-08T12:51:24.319Z,16.59
2023-04-08T12:53:51.611Z,16.52
2023-04-08T12:56:18.460Z,16.46
2023-04-08T12:58:45.642Z,16.42
2023-04-08T13:01:12.504Z,16.41
2023-04-08T13:03:42.103Z,16.40
2023-04-08T13:06:10.865Z,16.37
2023-04-08T13:08:37.711Z,16.35
2023-04-08T13:11:08.152Z,16.33
2023-04-08T13:13:36.145Z,16.30
2023-04-08T13:16:03.588Z,16.25
2023-04-08T13:18:37.500Z,16.23
2023-04-08T13:21:07.553Z,16.20
2023-04-08T13:23:34.499Z,16.18
2023-04-08T13:26:06.339Z,16.14
2023-04-08T13:28:55.981Z,16.10
2023-04-08T13:31:26.458Z,16.06
2023-04-08T13:33:58.150Z,16.01
2023-04-08T13:36:28.125Z,15.95
2023-04-08T13:38:56.145Z,15.90
2023-04-08T13:41:24.766Z,15.86
2023-04-08T13:43:53.116Z,15.82
2023-04-08T13:46:21.309Z,15.78
2023-04-08T13:48:50.197Z,15.72
2023-04-08T13:51:17.400Z,15.65
2023-04-08T13:53:45.064Z,15.57
2023-04-08T13:56:12.705Z,15.51
2023-04-08T13:58:40.209Z,15.46
2023-04-08T14:01:08.661Z,15.45
2023-04-08T14:03:36.737Z,15.43
2023-04-08T14:06:04.016Z,15.37
2023-04-08T14:08:30.723Z,15.30
2023-04-08T14:10:58.712Z,15.29
2023-04-08T14:13:26.104Z,15.31
2023-04-08T14:16:02.002Z,15.31
2023-04-08T14:18:30.705Z,15.29
2023-04-08T14:20:57.602Z,15.24
2023-04-08T14:23:27.255Z,15.15
2023-04-08T14:25:57.381Z,15.08
2023-04-08T14:28:28.678Z,15.03
2023-04-08T14:33:39.364Z,14.97
2023-04-08T14:36:09.042Z,14.96
2023-04-08T14:38:38.732Z,14.98
2023-04-08T14:41:07.210Z,15.00
2023-04-08T14:43:39.079Z,15.01
2023-04-08T14:46:05.974Z,15.02
2023-04-08T14:48:33.277Z,15.00
2023-04-08T14:51:00.128Z,14.99
2023-04-08T14:53:49.945Z,14.97
2023-04-08T14:56:17.094Z,14.94
2023-04-08T14:58:46.786Z,14.90
2023-04-08T15:01:13.930Z,14.86
2023-04-08T15:03:41.770Z,14.82
2023-04-08T15:06:10.499Z,14.80
2023-04-08T15:08:37.505Z,14.76
2023-04-08T15:11:05.080Z,14.75
2023-04-08T15:13:35.728Z,14.74
2023-04-08T15:16:05.388Z,14.71
2023-04-08T15:18:33.906Z,14.71
2023-04-08T15:21:25.106Z,14.69
2023-04-08T15:23:56.389Z,14.66
2023-04-08T15:26:23.932Z,14.63
2023-04-08T15:28:52.242Z,14.61
2023-04-08T15:31:21.257Z,14.59
2023-04-08T15:33:48.811Z,14.56
2023-04-08T15:36:19.482Z,14.51
2023-04-08T15:38:47.272Z,14.48
2023-04-08T15:41:20.647Z,14.47
2023-04-08T15:43:48.747Z,14.47
2023-04-08T15:46:21.455Z,14.47
2023-04-08T15:48:49.306Z,14.46
2023-04-08T15:51:17.442Z,14.44
2023-04-08T15:53:44.660Z,14.40
2023-04-08T15:56:15.666Z,14.34
2023-04-08T15:58:43.889Z,14.30
2023-04-08T16:01:11.809Z,14.23
2023-04-08T16:03:40.365Z,14.16
2023-04-08T16:06:07.908Z,14.12
2023-04-08T16:08:35.066Z,14.12
2023-04-08T16:11:04.196Z,14.12
2023-04-08T16:13:32.040Z,14.11
2023-04-08T16:16:02.305Z,14.09
2023-04-08T16:18:29.725Z,14.06
2023-04-08T16:20:56.614Z,14.03
2023-04-08T16:23:23.887Z,14.00
2023-04-08T16:25:52.154Z,13.97
2023-04-08T16:28:21.052Z,13.92
2023-04-08T16:30:48.533Z,13.85
2023-04-08T16:33:15.786Z,13.77
2023-04-08T16:35:43.380Z,13.75
2023-04-08T16:38:11.447Z,13.76
2023-04-08T16:40:40.857Z,13.76
2023-04-08T16:46:31.819Z,13.75
2023-04-08T16:51:44.521Z,13.63
2023-04-08T16:54:11.664Z,13.57
2023-04-08T16:56:44.890Z,13.52
2023-04-08T16:59:12.408Z,13.46
2023-04-08T17:01:40.852Z,13.39
2023-04-08T17:04:08.098Z,13.35
2023-04-08T17:06:38.636Z,13.32
2023-04-08T17:09:08.672Z,13.30
2023-04-08T17:11:37.624Z,13.29
2023-04-08T17:14:04.585Z,13.31
2023-04-08T17:16:41.313Z,13.34
2023-04-08T17:19:08.211Z,13.37
2023-04-08T17:21:35.008Z,13.38
2023-04-08T17:24:13.324Z,13.38
2023-04-08T17:26:42.117Z,13.37
2023-04-08T17:29:10.270Z,13.35
2023-04-08T17:31:40.928Z,13.33
2023-04-08T17:34:07.765Z,13.28
2023-04-08T17:36:34.921Z,13.22
2023-04-08T17:39:03.274Z,13.21
2023-04-08T17:41:39.852Z,13.22
2023-04-08T17:44:11.489Z,13.22
2023-04-08T17:46:39.172Z,13.20
2023-04-08T17:49:12.264Z,13.21
2023-04-08T17:51:43.792Z,13.27
2023-04-08T17:54:13.163Z,13.33
2023-04-08T17:56:46.649Z,13.34
2023-04-08T17:59:14.858Z,13.32
2023-04-08T18:01:47.272Z,13.34
2023-04-08T18:04:15.699Z,13.36
2023-04-08T18:06:42.984Z,13.35
2023-04-08T18:09:11.842Z,13.35
2023-04-08T18:11:40.935Z,13.32
2023-04-08T18:14:09.322Z,13.27
2023-04-08T18:16:44.000Z,13.22
2023-04-08T18:19:15.388Z,13.19
2023-04-08T18:21:43.263Z,13.17
2023-04-08T18:24:10.236Z,13.17
2023-04-08T18:26:38.929Z,13.17
2023-04-08T18:29:07.697Z,13.16
2023-04-08T18:31:37.636Z,13.16
2023-04-08T18:34:05.023Z,13.18
2023-04-08T18:36:33.192Z,13.21
2023-04-08T18:39:01.981Z,13.22
2023-04-08T18:41:29.230Z,13.21
2023-04-08T18:44:02.524Z,13.19
2023-04-08T18:46:30.980Z,13.18
2023-04-08T18:49:07.441Z,13.12
2023-04-08T18:51:35.457Z,13.06
2023-04-08T18:54:04.817Z,12.98
2023-04-08T18:56:34.988Z,12.92
2023-04-08T18:59:03.310Z,12.89
2023-04-08T19:01:32.969Z,12.88
2023-04-08T19:04:01.195Z,12.87
2023-04-08T19:06:34.838Z,12.86
2023-04-08T19:09:01.942Z,12.88
2023-04-08T19:11:31.052Z,12.89
2023-04-08T19:14:00.326Z,12.89
2023-04-08T19:16:33.151Z,12.89
2023-04-08T19:19:03.050Z,12.88
2023-04-08T19:21:32.344Z,12.83
2023-04-08T19:24:00.666Z,12.82
2023-04-08T19:26:28.541Z,12.79
2023-04-08T19:28:55.975Z,12.80
2023-04-08T19:31:25.350Z,12.82
2023-04-08T19:33:52.989Z,12.82
2023-04-08T19:36:25.618Z,12.85
2023-04-08T19:38:53.982Z,12.84
2023-04-08T19:41:22.535Z,12.87
2023-04-08T19:43:50.320Z,12.88
2023-04-08T19:46:18.261Z,12.88
2023-04-08T19:48:46.964Z,12.88
2023-04-08T19:51:19.673Z,12.85
2023-04-08T19:53:50.675Z,12.82
2023-04-08T19:56:18.602Z,12.83
2023-04-08T19:58:47.742Z,12.84
2023-04-08T20:01:18.346Z,12.88
2023-04-08T20:03:49.782Z,12.91
2023-04-08T20:06:17.062Z,12.92
2023-04-08T20:08:45.394Z,12.90
2023-04-08T20:11:13.142Z,12.89
2023-04-08T20:13:40.771Z,12.88
2023-04-08T20:16:10.544Z,12.91
2023-04-08T20:18:39.950Z,12.95
2023-04-08T20:21:07.836Z,12.98
2023-04-08T20:23:35.901Z,12.95
2023-04-08T20:26:03.199Z,12.87
2023-04-08T20:28:33.067Z,12.75
2023-04-08T20:31:01.390Z,12.66
2023-04-08T20:33:28.596Z,12.59
2023-04-08T20:35:56.847Z,12.55
2023-04-08T20:38:24.744Z,12.48
2023-04-08T20:40:54.030Z,12.40
2023-04-08T20:43:23.493Z,12.31
2023-04-08T20:45:50.585Z,12.25
2023-04-08T20:48:17.992Z,12.20
2023-04-08T20:50:48.546Z,12.18
2023-04-08T20:53:18.965Z,12.14
2023-04-08T20:55:51.982Z,12.10
2023-04-08T20:58:30.223Z,12.07
2023-04-08T21:00:58.684Z,12.03
2023-04-08T21:03:26.393Z,11.96
2023-04-08T21:05:55.065Z,11.92
2023-04-08T21:08:23.072Z,11.88
2023-04-08T21:10:53.069Z,11.84
2023-04-08T21:13:23.711Z,11.80
2023-04-08T21:15:50.731Z,11.75
2023-04-08T21:18:18.568Z,11.72
2023-04-08T21:20:45.409Z,11.70
2023-04-08T21:23:12.525Z,11.67
2023-04-08T21:25:40.345Z,11.62
2023-04-08T21:28:08.760Z,11.59
2023-04-08T21:30:36.466Z,11.54
2023-04-08T21:33:03.354Z,11.46
2023-04-08T21:35:30.199Z,11.38
2023-04-08T21:37:57.527Z,11.33
2023-04-08T21:40:24.295Z,11.29
2023-04-08T21:42:52.013Z,11.26
2023-04-08T21:45:19.711Z,11.23
2023-04-08T21:47:46.710Z,11.17
2023-04-08T21:50:15.166Z,11.11
2023-04-08T21:52:43.820Z,11.07
2023-04-08T21:55:10.885Z,11.02
2023-04-08T21:57:41.311Z,10.98
2023-04-08T22:00:12.727Z,10.95
2023-04-08T22:02:52.004Z,10.92
2023-04-08T22:05:19.106Z,10.89
2023-04-08T22:07:49.573Z,10.86
2023-04-08T22:10:17.030Z,10.85
2023-04-08T22:12:44.032Z,10.84
2023-04-08T22:15:26.577Z,10.80
2023-04-08T22:17:53.926Z,10.77
2023-04-08T22:20:20.937Z,10.69
2023-04-08T22:22:50.246Z,10.63
2023-04-08T22:25:17.273Z,10.61
2023-04-08T22:27:44.396Z,10.62
2023-04-08T22:30:13.143Z,10.60
2023-04-08T22:32:51.494Z,10.53
2023-04-08T22:35:18.642Z,10.49
2023-04-08T22:37:48.083Z,10.50
2023-04-08T22:40:15.035Z,10.55
2023-04-08T22:42:41.871Z,10.57
2023-04-08T22:45:09.022Z,10.60
2023-04-08T22:47:37.049Z,10.62
2023-04-08T22:50:05.874Z,10.64
2023-04-08T22:52:32.971Z,10.66
2023-04-08T22:54:59.914Z,10.65
2023-04-08T22:57:27.117Z,10.63
2023-04-08T22:59:54.034Z,10.63
2023-04-08T23:02:21.254Z,10.64
2023-04-08T23:04:52.490Z,10.65
2023-04-08T23:07:22.718Z,10.65
2023-04-08T23:09:50.246Z,10.67
2023-04-08T23:12:17.018Z,10.67
2023-04-08T23:14:46.110Z,10.68
2023-04-08T23:17:13.116Z,10.70
2023-04-08T23:19:41.862Z,10.74
2023-04-08T23:22:15.774Z,10.77
2023-04-08T23:24:43.426Z,10.80
2023-04-08T23:27:10.294Z,10.83
2023-04-08T23:29:37.320Z,10.86
2023-04-08T23:32:04.379Z,10.88
2023-04-08T23:34:35.916Z,10.89
2023-04-08T23:37:05.184Z,10.87
2023-04-08T23:39:33.102Z,10.82
2023-04-08T23:42:01.252Z,10.75
2023-04-08T23:44:28.376Z,10.70
2023-04-08T23:46:56.073Z,10.66
2023-04-08T23:49:25.543Z,10.67
2023-04-08T23:51:53.121Z,10.69
2023-04-08T23:54:20.146Z,10.72
2023-04-08T23:56:48.817Z,10.73
2023-04-08T23:59:16.161Z,10.71
